Time;durP1;ratioP1;P1;durP2;ratioP2;P2;SDS_P1;SDS_P2;PMS_P1;PMS_P2;Temp;Humidity;BMP_temperature;BMP_pressure;BME280_temperature;BME280_humidity;BME280_pressure;Samples;Min_cycle;Max_cycle;Signal;HPM_P1;HPM_P2
2023/02/07 00:01:35;;;;;;;4.75;3.38;;;6.20;99.90;;;;;;5026070;28;20222;-67
2023/02/07 00:04:04;;;;;;;5.72;3.55;;;6.20;99.90;;;;;;5024419;28;20250;-68
2023/02/07 00:06:34;;;;;;;7.50;4.15;;;6.20;99.90;;;;;;5009181;28;20752;-68
2023/02/07 00:09:06;;;;;;;3.47;3.17;;;6.20;99.90;;;;;;5024598;28;20199;-67
2023/02/07 00:11:39;;;;;;;4.97;4.30;;;6.20;99.90;;;;;;5023815;28;20222;-67
2023/02/07 00:14:09;;;;;;;7.40;3.60;;;6.20;99.90;;;;;;5014930;28;20239;-68
2023/02/07 00:16:39;;;;;;;4.65;3.58;;;6.20;99.90;;;;;;5013382;28;20222;-67
2023/02/07 00:19:07;;;;;;;4.43;3.75;;;6.20;99.90;;;;;;5023932;28;20211;-67
2023/02/07 00:21:36;;;;;;;4.90;3.30;;;6.20;99.90;;;;;;4993059;28;20223;-69
2023/02/07 00:24:05;;;;;;;3.95;3.40;;;6.20;99.90;;;;;;5022713;28;20268;-68
2023/02/07 00:26:33;;;;;;;5.05;3.35;;;6.20;99.90;;;;;;5026133;28;20203;-68
2023/02/07 00:29:02;;;;;;;5.63;3.30;;;6.20;99.90;;;;;;5035431;28;20353;-68
2023/02/07 00:31:32;;;;;;;3.90;3.40;;;6.20;99.90;;;;;;5024580;28;20231;-68
2023/02/07 00:34:07;;;;;;;4.72;3.72;;;6.20;99.90;;;;;;5014231;28;20215;-67
2023/02/07 00:36:36;;;;;;;3.72;3.20;;;6.20;99.90;;;;;;5017825;28;20186;-67
2023/02/07 00:39:07;;;;;;;3.95;2.88;;;6.20;99.90;;;;;;5019632;28;20290;-67
2023/02/07 00:41:35;;;;;;;4.22;3.42;;;6.20;99.90;;;;;;5017495;28;20238;-68
2023/02/07 00:44:04;;;;;;;4.72;3.08;;;6.20;99.90;;;;;;5001655;28;20222;-69
2023/02/07 00:46:33;;;;;;;3.38;3.08;;;6.20;99.90;;;;;;5017424;28;20662;-67
2023/02/07 00:49:01;;;;;;;4.65;3.58;;;6.20;99.90;;;;;;5029463;28;20199;-68
2023/02/07 00:51:32;;;;;;;4.32;3.40;;;6.20;99.90;;;;;;5012206;28;20300;-68
2023/02/07 00:54:01;;;;;;;7.20;3.88;;;6.20;99.90;;;;;;5022995;28;20299;-68
2023/02/07 00:56:30;;;;;;;5.57;3.70;;;6.20;99.90;;;;;;4997666;28;20309;-66
2023/02/07 00:58:59;;;;;;;4.82;3.20;;;6.20;99.90;;;;;;5014536;28;20192;-69
2023/02/07 01:01:28;;;;;;;4.18;3.13;;;6.10;99.90;;;;;;5026662;28;20235;-69
2023/02/07 01:03:57;;;;;;;3.95;3.10;;;6.10;99.90;;;;;;5014860;28;20666;-67
2023/02/07 01:06:26;;;;;;;4.88;3.88;;;6.10;99.90;;;;;;5025346;28;20217;-67
2023/02/07 01:08:58;;;;;;;5.13;3.20;;;6.10;99.90;;;;;;5012756;28;20204;-68
2023/02/07 01:11:28;;;;;;;5.20;3.80;;;6.10;99.90;;;;;;5019945;28;20249;-69
2023/02/07 01:13:58;;;;;;;4.35;3.50;;;6.10;99.90;;;;;;5015073;28;20231;-69
2023/02/07 01:16:29;;;;;;;6.40;4.13;;;6.10;99.90;;;;;;5014283;28;20211;-69
2023/02/07 01:18:58;;;;;;;8.52;3.30;;;6.10;99.90;;;;;;5012867;28;20223;-68
2023/02/07 01:21:27;;;;;;;4.82;2.85;;;6.10;99.90;;;;;;5016430;28;20822;-67
2023/02/07 01:23:57;;;;;;;6.38;3.42;;;6.10;99.90;;;;;;5018634;28;20604;-68
2023/02/07 01:26:26;;;;;;;4.05;3.42;;;6.10;99.90;;;;;;5022862;28;20187;-68
2023/02/07 01:28:55;;;;;;;3.88;3.33;;;6.10;99.90;;;;;;5019390;28;20590;-67
2023/02/07 01:31:24;;;;;;;4.93;3.30;;;6.10;99.90;;;;;;5025089;28;20298;-68
2023/02/07 01:33:56;;;;;;;4.10;3.00;;;6.10;99.90;;;;;;5017175;28;20199;-66
2023/02/07 01:36:27;;;;;;;3.92;3.22;;;6.10;99.90;;;;;;5013673;28;20215;-67
2023/02/07 01:38:57;;;;;;;3.83;2.50;;;6.10;99.90;;;;;;5026467;28;20230;-67
2023/02/07 01:41:26;;;;;;;4.30;2.67;;;6.10;99.90;;;;;;5021711;28;20207;-67
2023/02/07 01:43:58;;;;;;;6.32;2.97;;;6.10;99.90;;;;;;5017902;28;20191;-67
2023/02/07 01:46:28;;;;;;;3.85;3.35;;;6.10;99.90;;;;;;5022206;28;20226;-68
2023/02/07 01:49:01;;;;;;;4.70;3.42;;;6.10;99.90;;;;;;5018718;28;20202;-67
2023/02/07 01:51:31;;;;;;;3.75;3.20;;;6.10;99.90;;;;;;5017957;28;20226;-67
2023/02/07 01:54:06;;;;;;;3.60;3.03;;;6.10;99.90;;;;;;5016070;28;20310;-66
2023/02/07 01:56:38;;;;;;;3.53;3.22;;;6.10;99.90;;;;;;5017535;28;20695;-67
2023/02/07 01:59:06;;;;;;;3.60;2.83;;;6.10;99.90;;;;;;5022370;28;20199;-68
2023/02/07 02:01:38;;;;;;;4.75;3.15;;;6.10;99.90;;;;;;5020464;28;20191;-68
2023/02/07 02:04:06;;;;;;;3.30;2.53;;;6.10;99.90;;;;;;5020629;28;20305;-68
2023/02/07 02:06:35;;;;;;;3.75;2.80;;;6.10;99.90;;;;;;5019443;28;20282;-68
2023/02/07 02:09:11;;;;;;;3.30;2.83;;;6.10;99.90;;;;;;5022961;28;20203;-68
2023/02/07 02:12:10;;;;;;;2.83;2.50;;;6.10;99.90;;;;;;5013802;28;20222;-69
2023/02/07 02:14:57;;;;;;;3.30;2.60;;;6.10;99.90;;;;;;5020862;28;20222;-67
2023/02/07 02:17:33;;;;;;;3.70;2.95;;;6.10;99.90;;;;;;5014511;28;20632;-66
2023/02/07 02:20:43;;;;;;;5.43;3.45;;;6.10;99.90;;;;;;5027545;28;20313;-68
2023/02/07 02:23:24;;;;;;;3.85;2.47;;;6.10;99.90;;;;;;5022441;28;20336;-68
2023/02/07 02:26:26;;;;;;;3.42;3.10;;;6.10;99.90;;;;;;5011793;28;20324;-67
2023/02/07 02:29:31;;;;;;;3.22;2.75;;;6.00;99.90;;;;;;5019172;28;20217;-67
2023/02/07 02:32:40;;;;;;;3.72;2.70;;;6.10;99.90;;;;;;5027152;28;20222;-70
2023/02/07 02:35:15;;;;;;;2.95;2.50;;;6.00;99.90;;;;;;5021144;28;20621;-67
2023/02/07 02:37:52;;;;;;;4.53;3.20;;;6.00;99.90;;;;;;5020822;28;20220;-68
2023/02/07 02:40:27;;;;;;;2.70;2.50;;;6.00;99.90;;;;;;5028512;28;20197;-68
2023/02/07 02:43:03;;;;;;;4.38;3.15;;;6.00;99.90;;;;;;5022365;28;20221;-67
2023/02/07 02:45:36;;;;;;;3.75;2.85;;;6.00;99.90;;;;;;5022897;28;20223;-67
2023/02/07 02:48:08;;;;;;;3.30;2.45;;;6.00;99.90;;;;;;5023851;28;20230;-69
2023/02/07 02:50:39;;;;;;;3.17;2.88;;;6.00;99.90;;;;;;5027161;28;20221;-66
2023/02/07 02:53:09;;;;;;;4.05;3.33;;;6.00;99.90;;;;;;5016214;28;20231;-68
2023/02/07 02:56:10;;;;;;;6.65;3.35;;;6.00;99.90;;;;;;5022032;28;20406;-68
2023/02/07 02:58:51;;;;;;;3.58;2.60;;;6.00;99.90;;;;;;5026462;28;20249;-67
2023/02/07 03:01:28;;;;;;;4.22;2.75;;;6.00;99.90;;;;;;5026201;28;20212;-67
2023/02/07 03:04:27;;;;;;;4.90;2.65;;;6.00;99.90;;;;;;5034936;28;20238;-69
2023/02/07 03:07:10;;;;;;;2.47;2.17;;;6.00;99.90;;;;;;5039063;28;20653;-69
2023/02/07 03:09:51;;;;;;;5.53;2.95;;;6.00;99.90;;;;;;5017961;28;20194;-69
2023/02/07 03:12:25;;;;;;;3.38;2.95;;;6.00;99.90;;;;;;5025207;28;20298;-67
2023/02/07 03:15:02;;;;;;;3.25;2.95;;;6.00;99.90;;;;;;5034762;28;20207;-67
2023/02/07 03:17:39;;;;;;;6.43;3.03;;;6.00;99.90;;;;;;5026296;28;20218;-69
2023/02/07 03:20:13;;;;;;;5.95;3.13;;;6.00;99.90;;;;;;5026214;28;20198;-68
2023/02/07 03:22:44;;;;;;;3.33;2.30;;;6.00;99.90;;;;;;5022434;28;20219;-68
2023/02/07 03:25:15;;;;;;;3.08;2.80;;;6.00;99.90;;;;;;5026971;28;20217;-67
2023/02/07 03:27:46;;;;;;;4.07;2.50;;;6.00;99.90;;;;;;5023048;28;20731;-67
2023/02/07 03:30:18;;;;;;;4.25;2.80;;;6.00;99.90;;;;;;5020901;28;20679;-68
2023/02/07 03:32:50;;;;;;;2.70;2.22;;;5.90;99.90;;;;;;5028464;28;20563;-68
2023/02/07 03:35:23;;;;;;;3.00;2.60;;;6.00;99.90;;;;;;5026367;28;20219;-67
2023/02/07 03:37:56;;;;;;;3.50;2.85;;;6.00;99.90;;;;;;5010276;28;20718;-68
2023/02/07 03:40:28;;;;;;;3.95;2.85;;;6.00;99.90;;;;;;5019640;28;20211;-68
2023/02/07 03:43:03;;;;;;;4.13;3.13;;;5.90;99.90;;;;;;5028482;28;20690;-68
2023/02/07 03:45:32;;;;;;;3.47;2.78;;;5.90;99.90;;;;;;5028763;28;20295;-67
2023/02/07 03:48:00;;;;;;;4.07;2.35;;;5.90;99.90;;;;;;5017308;28;20250;-67
2023/02/07 03:50:29;;;;;;;3.58;2.60;;;5.90;99.90;;;;;;5027456;28;20194;-67
2023/02/07 03:52:58;;;;;;;3.70;2.80;;;5.90;99.90;;;;;;5028819;28;20251;-66
2023/02/07 03:55:27;;;;;;;3.70;2.65;;;5.90;99.90;;;;;;5015565;28;20209;-67
2023/02/07 03:57:56;;;;;;;2.90;2.65;;;5.90;99.90;;;;;;5025262;28;20700;-67
2023/02/07 04:00:24;;;;;;;3.10;2.80;;;5.90;99.90;;;;;;5031007;28;20199;-67
2023/02/07 04:02:52;;;;;;;4.10;2.90;;;5.90;99.90;;;;;;5016804;28;20224;-67
2023/02/07 04:05:21;;;;;;;2.90;2.60;;;5.90;99.90;;;;;;5009894;28;20265;-67
2023/02/07 04:07:49;;;;;;;3.80;2.85;;;5.90;99.90;;;;;;5024470;28;20223;-66
2023/02/07 04:10:19;;;;;;;3.78;3.00;;;5.90;99.90;;;;;;5024640;28;20286;-68
2023/02/07 04:12:47;;;;;;;3.60;3.13;;;5.90;99.90;;;;;;5027800;28;20258;-68
2023/02/07 04:15:17;;;;;;;3.83;2.72;;;5.90;99.90;;;;;;5023415;28;20215;-67
2023/02/07 04:17:46;;;;;;;3.20;2.55;;;5.90;99.90;;;;;;5024571;28;20226;-67
2023/02/07 04:20:14;;;;;;;4.03;2.38;;;5.90;99.90;;;;;;5016868;28;20194;-67
2023/02/07 04:22:44;;;;;;;3.17;2.55;;;5.90;99.90;;;;;;5020964;28;20218;-68
2023/02/07 04:25:12;;;;;;;3.90;2.55;;;5.90;99.90;;;;;;5015824;28;20216;-67
2023/02/07 04:27:42;;;;;;;4.55;2.90;;;5.90;99.90;;;;;;5015525;28;20218;-69
2023/02/07 04:30:11;;;;;;;3.35;2.30;;;5.90;99.90;;;;;;5016533;28;20198;-69
2023/02/07 04:32:40;;;;;;;3.15;2.45;;;5.90;99.90;;;;;;5023869;28;20729;-66
2023/02/07 04:35:09;;;;;;;3.88;2.88;;;5.80;99.90;;;;;;5018875;28;20894;-67
2023/02/07 04:37:37;;;;;;;3.30;3.00;;;5.90;99.90;;;;;;5023393;28;20268;-66
2023/02/07 04:40:06;;;;;;;4.70;2.70;;;5.90;99.90;;;;;;5017689;28;20269;-66
2023/02/07 04:42:35;;;;;;;2.92;2.65;;;5.80;99.90;;;;;;5020714;28;20218;-66
2023/02/07 04:45:05;;;;;;;3.47;2.40;;;5.80;99.90;;;;;;5026701;28;20637;-66
2023/02/07 04:47:33;;;;;;;2.80;2.50;;;5.80;99.90;;;;;;5020359;28;20212;-67
2023/02/07 04:50:03;;;;;;;3.08;2.78;;;5.80;99.90;;;;;;5022659;28;20201;-68
2023/02/07 04:52:31;;;;;;;5.80;2.58;;;5.80;99.90;;;;;;5013431;28;20277;-66
2023/02/07 04:54:59;;;;;;;3.95;3.10;;;5.80;99.90;;;;;;5015473;28;20634;-67
2023/02/07 04:57:28;;;;;;;3.45;2.30;;;5.80;99.90;;;;;;5016151;28;20912;-67
2023/02/07 04:59:57;;;;;;;4.13;3.03;;;5.80;99.90;;;;;;5025620;28;20207;-66
2023/02/07 05:02:27;;;;;;;3.13;2.58;;;5.80;99.90;;;;;;5023755;28;20258;-66
2023/02/07 05:04:55;;;;;;;2.75;2.22;;;5.80;99.90;;;;;;5018001;28;20554;-66
2023/02/07 05:07:24;;;;;;;4.22;2.83;;;5.80;99.90;;;;;;5021272;28;20228;-67
2023/02/07 05:09:52;;;;;;;3.30;2.72;;;5.80;99.90;;;;;;5023360;28;20211;-67
2023/02/07 05:12:20;;;;;;;3.60;2.55;;;5.80;99.90;;;;;;5016351;28;20273;-67
2023/02/07 05:14:49;;;;;;;2.60;2.40;;;5.80;99.90;;;;;;5023204;28;20261;-67
2023/02/07 05:17:17;;;;;;;3.95;2.50;;;5.80;99.90;;;;;;5015995;28;20228;-67
2023/02/07 05:19:47;;;;;;;3.20;2.78;;;5.80;99.90;;;;;;5025154;28;20248;-67
2023/02/07 05:22:15;;;;;;;2.30;2.10;;;5.80;99.90;;;;;;5023470;28;20206;-69
2023/02/07 05:24:44;;;;;;;3.08;2.78;;;5.80;99.90;;;;;;5019478;28;20576;-65
2023/02/07 05:27:12;;;;;;;2.78;2.55;;;5.80;99.90;;;;;;5023991;28;20254;-67
2023/02/07 05:29:40;;;;;;;3.40;2.90;;;5.80;99.90;;;;;;5024985;28;20221;-67
2023/02/07 05:34:59;;;;;;;2.95;2.65;;;5.80;99.90;;;;;;5023789;28;20317;-67
2023/02/07 05:37:27;;;;;;;4.05;2.50;;;5.80;99.90;;;;;;5021768;28;20321;-67
2023/02/07 05:39:57;;;;;;;3.50;2.60;;;5.80;99.90;;;;;;5015955;28;20190;-67
2023/02/07 05:42:25;;;;;;;3.03;2.50;;;5.80;99.90;;;;;;5015130;28;20229;-66
2023/02/07 05:44:53;;;;;;;3.40;3.10;;;5.70;99.90;;;;;;5021058;28;20305;-67
2023/02/07 05:47:22;;;;;;;3.58;2.40;;;5.70;99.90;;;;;;5021125;28;20219;-67
2023/02/07 05:49:50;;;;;;;3.95;2.88;;;5.70;99.90;;;;;;5033302;28;20204;-68
2023/02/07 05:52:20;;;;;;;2.88;2.58;;;5.80;99.90;;;;;;5052611;28;20199;-67
2023/02/07 05:54:48;;;;;;;3.40;2.42;;;5.70;99.90;;;;;;5022172;28;20250;-67
2023/02/07 05:57:17;;;;;;;3.05;1.90;;;5.70;99.90;;;;;;5019588;28;21154;-67
2023/02/07 05:59:46;;;;;;;3.45;2.67;;;5.70;99.90;;;;;;5024376;28;20290;-65
2023/02/07 06:02:14;;;;;;;3.65;2.20;;;5.70;99.90;;;;;;5012909;28;20309;-67
2023/02/07 06:04:43;;;;;;;2.63;2.30;;;5.70;99.90;;;;;;5011814;28;20211;-66
2023/02/07 06:07:11;;;;;;;2.97;2.30;;;5.70;99.90;;;;;;5022436;28;20203;-65
2023/02/07 06:09:41;;;;;;;2.47;2.28;;;5.70;99.90;;;;;;5015675;28;20210;-66
2023/02/07 06:12:09;;;;;;;2.55;2.22;;;5.70;99.90;;;;;;5021094;28;20218;-67
2023/02/07 06:14:38;;;;;;;3.50;2.20;;;5.70;99.90;;;;;;5016531;28;20299;-68
2023/02/07 06:17:06;;;;;;;4.60;2.50;;;5.70;99.90;;;;;;5016992;28;20310;-67
2023/02/07 06:19:35;;;;;;;5.00;2.55;;;5.70;99.90;;;;;;5015478;28;20190;-66
2023/02/07 06:22:03;;;;;;;3.45;2.70;;;5.70;99.90;;;;;;5021022;28;20655;-67
2023/02/07 06:24:31;;;;;;;2.65;2.15;;;5.70;99.90;;;;;;5021465;28;20224;-66
2023/02/07 06:27:01;;;;;;;3.92;2.75;;;5.70;99.90;;;;;;5017263;28;20198;-66
2023/02/07 06:29:29;;;;;;;2.80;2.20;;;5.70;99.90;;;;;;5026751;28;20277;-66
2023/02/07 06:31:58;;;;;;;3.53;2.90;;;5.70;99.90;;;;;;5018360;28;20225;-66
2023/02/07 06:34:26;;;;;;;2.30;2.05;;;5.70;99.90;;;;;;5020699;28;20310;-65
2023/02/07 06:36:55;;;;;;;4.95;3.05;;;5.70;99.90;;;;;;5023463;28;20191;-67
2023/02/07 06:39:23;;;;;;;2.90;2.58;;;5.70;99.90;;;;;;5019976;28;20221;-65
2023/02/07 06:41:52;;;;;;;3.78;2.35;;;5.70;99.90;;;;;;5015244;28;20313;-66
2023/02/07 06:44:22;;;;;;;2.92;2.50;;;5.60;99.90;;;;;;5010257;28;20226;-66
2023/02/07 06:46:50;;;;;;;2.80;2.40;;;5.60;99.90;;;;;;5021706;28;20186;-65
2023/02/07 06:49:19;;;;;;;3.17;2.42;;;5.60;99.90;;;;;;5009725;28;20261;-67
2023/02/07 06:51:47;;;;;;;3.92;2.58;;;5.60;99.90;;;;;;5022689;28;20222;-66
2023/02/07 06:54:16;;;;;;;2.83;2.55;;;5.60;99.90;;;;;;5021175;28;20300;-67
2023/02/07 06:56:44;;;;;;;3.58;3.22;;;5.60;99.90;;;;;;5020332;28;20280;-67
2023/02/07 06:59:13;;;;;;;3.33;3.03;;;5.60;99.90;;;;;;5010813;28;20241;-66
2023/02/07 07:01:42;;;;;;;6.68;2.70;;;5.60;99.90;;;;;;5022164;28;20234;-67
2023/02/07 07:04:11;;;;;;;3.28;2.78;;;5.60;99.90;;;;;;5018318;28;20253;-66
2023/02/07 07:06:39;;;;;;;2.67;2.45;;;5.60;99.90;;;;;;5016144;28;20287;-65
2023/02/07 07:09:07;;;;;;;2.47;2.20;;;5.60;99.90;;;;;;5006707;28;20194;-67
2023/02/07 07:11:37;;;;;;;4.85;2.45;;;5.60;99.90;;;;;;5018973;28;20221;-67
2023/02/07 07:14:06;;;;;;;3.33;2.50;;;5.60;99.90;;;;;;5022089;28;20224;-66
2023/02/07 07:16:35;;;;;;;3.50;2.75;;;5.60;99.90;;;;;;5025672;28;20205;-66
2023/02/07 07:19:05;;;;;;;2.65;2.35;;;5.60;99.90;;;;;;5020348;28;20225;-67
2023/02/07 07:21:33;;;;;;;3.13;2.70;;;5.60;99.90;;;;;;5011382;28;20198;-67
2023/02/07 07:24:01;;;;;;;4.15;3.00;;;5.60;99.90;;;;;;5026546;28;20349;-67
2023/02/07 07:26:30;;;;;;;2.72;2.53;;;5.60;99.90;;;;;;5017844;28;20198;-67
2023/02/07 07:29:15;;;;;;;3.67;2.60;;;5.60;99.90;;;;;;5019823;28;20253;-66
2023/02/07 07:31:43;;;;;;;2.85;2.53;;;5.60;99.90;;;;;;5020931;28;20191;-66
2023/02/07 07:34:13;;;;;;;5.32;2.78;;;5.60;99.90;;;;;;5014022;28;20290;-65
2023/02/07 07:36:42;;;;;;;3.33;2.42;;;5.50;99.90;;;;;;5019350;28;20226;-66
2023/02/07 07:39:10;;;;;;;3.40;2.95;;;5.60;99.90;;;;;;5022034;28;20213;-67
2023/02/07 07:41:39;;;;;;;3.75;2.90;;;5.50;99.90;;;;;;5026121;28;20196;-66
2023/02/07 07:44:12;;;;;;;3.17;2.65;;;5.50;99.90;;;;;;5010174;28;20654;-66
2023/02/07 07:46:41;;;;;;;3.78;2.65;;;5.50;99.90;;;;;;5025530;28;20659;-66
2023/02/07 07:49:10;;;;;;;4.07;3.67;;;5.50;99.90;;;;;;5016991;28;20201;-66
2023/02/07 07:51:40;;;;;;;2.50;2.30;;;5.50;99.90;;;;;;5016954;28;20683;-66
2023/02/07 07:54:08;;;;;;;5.00;2.65;;;5.50;99.90;;;;;;5022917;28;20229;-66
2023/02/07 07:56:36;;;;;;;4.88;3.17;;;5.50;99.90;;;;;;5025490;28;20576;-66
2023/02/07 07:59:05;;;;;;;3.95;2.50;;;5.50;99.90;;;;;;5019550;28;20294;-65
2023/02/07 08:01:47;;;;;;;3.90;3.17;;;5.50;99.90;;;;;;5014385;28;20195;-68
2023/02/07 08:04:15;;;;;;;3.67;3.00;;;5.50;99.90;;;;;;5021044;28;20225;-67
2023/02/07 08:06:45;;;;;;;4.13;3.00;;;5.50;99.90;;;;;;5021168;28;20257;-67
2023/02/07 08:09:14;;;;;;;5.18;3.60;;;5.50;99.90;;;;;;5021831;28;20679;-66
2023/02/07 08:11:42;;;;;;;6.95;3.00;;;5.40;99.90;;;;;;5023939;28;20713;-66
2023/02/07 08:14:11;;;;;;;4.70;3.40;;;5.40;99.90;;;;;;5025265;28;20226;-68
2023/02/07 08:16:39;;;;;;;3.25;2.83;;;5.40;99.90;;;;;;5013998;28;20227;-66
2023/02/07 08:19:07;;;;;;;2.55;2.33;;;5.40;99.90;;;;;;5022422;28;20224;-67
2023/02/07 08:21:36;;;;;;;3.97;2.53;;;5.40;99.90;;;;;;5016049;28;20250;-66
2023/02/07 08:24:06;;;;;;;2.78;2.58;;;5.40;99.90;;;;;;5021540;28;20218;-68
2023/02/07 08:26:34;;;;;;;4.53;3.00;;;5.40;99.90;;;;;;5030108;28;20226;-67
2023/02/07 08:29:03;;;;;;;3.47;2.95;;;5.40;99.90;;;;;;5024576;28;20666;-67
2023/02/07 08:31:31;;;;;;;4.22;3.42;;;5.40;99.90;;;;;;5025240;28;20191;-67
2023/02/07 08:34:00;;;;;;;4.07;3.65;;;5.40;99.90;;;;;;5004543;28;20218;-66
2023/02/07 08:36:28;;;;;;;4.07;2.95;;;5.30;99.90;;;;;;5023502;28;20201;-68
2023/02/07 08:38:56;;;;;;;5.43;3.40;;;5.30;99.90;;;;;;5025872;28;20634;-67
2023/02/07 08:41:26;;;;;;;3.60;3.08;;;5.30;99.90;;;;;;5022433;28;20248;-67
2023/02/07 08:43:55;;;;;;;3.75;2.75;;;5.30;99.90;;;;;;5021564;28;20206;-67
2023/02/07 08:46:23;;;;;;;4.65;3.40;;;5.30;99.90;;;;;;5023384;28;20228;-66
2023/02/07 08:48:51;;;;;;;3.50;3.15;;;5.30;99.90;;;;;;5026089;28;20186;-67
2023/02/07 08:51:22;;;;;;;3.45;2.65;;;5.30;99.90;;;;;;5017922;28;20283;-67
2023/02/07 08:53:50;;;;;;;4.40;3.30;;;5.40;99.90;;;;;;5017389;28;20194;-68
2023/02/07 08:56:19;;;;;;;3.08;2.55;;;5.40;99.90;;;;;;5020188;28;20197;-68
2023/02/07 08:58:48;;;;;;;4.28;2.70;;;5.40;99.90;;;;;;5019929;28;20226;-69
2023/02/07 09:01:17;;;;;;;4.30;2.63;;;5.40;99.90;;;;;;5017102;28;20198;-67
2023/02/07 09:03:45;;;;;;;3.22;2.70;;;5.40;99.90;;;;;;5019346;28;20195;-66
2023/02/07 09:06:14;;;;;;;2.83;2.50;;;5.40;99.90;;;;;;5015693;28;20653;-69
2023/02/07 09:08:42;;;;;;;3.63;2.92;;;5.50;99.90;;;;;;5016136;28;20214;-66
2023/02/07 09:11:11;;;;;;;4.35;2.75;;;5.50;99.90;;;;;;5021821;28;20199;-68
2023/02/07 09:13:39;;;;;;;3.90;2.40;;;5.50;99.90;;;;;;5021235;28;20222;-67
2023/02/07 09:16:09;;;;;;;2.92;2.33;;;5.50;99.90;;;;;;5018588;28;20202;-69
2023/02/07 09:18:38;;;;;;;2.92;2.50;;;5.50;99.90;;;;;;5009635;28;20590;-68
2023/02/07 09:21:06;;;;;;;7.90;3.95;;;5.50;99.90;;;;;;5017518;28;20210;-68
2023/02/07 09:23:35;;;;;;;3.70;2.60;;;5.50;99.90;;;;;;5010703;28;20229;-67
2023/02/07 09:26:06;;;;;;;4.00;2.65;;;5.50;99.90;;;;;;5016523;28;20215;-67
2023/02/07 09:28:35;;;;;;;5.22;4.18;;;5.50;99.90;;;;;;5016857;28;20219;-67
2023/02/07 09:31:09;;;;;;;4.32;3.90;;;5.50;99.90;;;;;;5020448;28;20743;-67
2023/02/07 09:33:38;;;;;;;4.05;3.55;;;5.50;99.90;;;;;;5008165;28;20305;-66
2023/02/07 09:36:17;;;;;;;5.90;3.35;;;5.50;99.90;;;;;;5018135;28;20206;-67
2023/02/07 09:38:47;;;;;;;3.60;3.05;;;5.50;99.90;;;;;;5006337;28;20214;-68
2023/02/07 09:41:24;;;;;;;3.53;3.05;;;5.50;99.90;;;;;;5020977;28;20305;-68
2023/02/07 09:44:04;;;;;;;4.53;3.90;;;5.50;99.90;;;;;;5019235;28;20218;-67
2023/02/07 09:46:37;;;;;;;4.20;3.55;;;5.50;99.90;;;;;;5020541;28;20208;-68
2023/02/07 09:49:12;;;;;;;4.60;3.30;;;5.50;99.90;;;;;;5017745;28;20294;-68
2023/02/07 09:51:42;;;;;;;3.13;2.72;;;5.50;99.90;;;;;;5011354;28;20259;-69
2023/02/07 09:54:18;;;;;;;3.67;2.83;;;5.60;99.90;;;;;;5023414;28;20254;-69
2023/02/07 09:56:47;;;;;;;5.03;3.58;;;5.60;99.90;;;;;;5012411;28;20238;-67
2023/02/07 09:59:24;;;;;;;3.42;2.60;;;5.60;99.90;;;;;;5013424;28;20642;-69
2023/02/07 10:01:59;;;;;;;3.00;2.70;;;5.60;99.90;;;;;;5012432;28;20212;-69
2023/02/07 10:04:35;;;;;;;4.00;2.90;;;5.60;99.90;;;;;;5013708;28;20213;-68
2023/02/07 10:07:07;;;;;;;4.85;3.53;;;5.60;99.90;;;;;;5005859;28;20225;-69
2023/02/07 10:09:39;;;;;;;4.22;3.50;;;5.60;99.90;;;;;;5001809;28;20191;-68
2023/02/07 10:12:25;;;;;;;2.90;2.60;;;5.60;99.90;;;;;;5022772;28;20198;-68
2023/02/07 10:15:13;;;;;;;4.53;3.22;;;5.60;99.90;;;;;;5010969;28;20214;-69
2023/02/07 10:18:00;;;;;;;4.35;3.03;;;5.60;99.90;;;;;;5016875;28;20227;-68
2023/02/07 10:20:38;;;;;;;2.75;2.42;;;5.60;99.90;;;;;;5021395;28;20283;-68
2023/02/07 10:23:19;;;;;;;2.92;2.45;;;5.60;99.90;;;;;;5010082;28;20278;-68
2023/02/07 10:25:59;;;;;;;3.25;2.67;;;5.60;99.90;;;;;;5015585;28;20214;-67
2023/02/07 10:28:53;;;;;;;3.33;2.70;;;5.60;99.90;;;;;;5017257;28;20226;-68
2023/02/07 10:31:25;;;;;;;2.30;2.10;;;5.60;99.90;;;;;;5011306;28;20203;-75
2023/02/07 10:33:58;;;;;;;3.95;3.30;;;5.60;99.90;;;;;;4997658;28;20229;-75
2023/02/07 10:36:28;;;;;;;2.20;2.00;;;5.60;99.90;;;;;;5013191;28;20248;-74
2023/02/07 10:39:07;;;;;;;3.42;2.58;;;5.60;99.90;;;;;;5026547;28;20203;-74
2023/02/07 10:41:39;;;;;;;3.17;2.70;;;5.60;99.90;;;;;;5018652;28;20668;-76
2023/02/07 10:44:12;;;;;;;3.28;2.42;;;5.60;99.90;;;;;;5022301;28;20249;-73
2023/02/07 10:46:43;;;;;;;3.40;2.75;;;5.60;99.90;;;;;;5035022;28;20316;-74
2023/02/07 10:49:19;;;;;;;3.58;2.63;;;5.60;99.90;;;;;;5026106;28;20211;-75
2023/02/07 10:51:55;;;;;;;3.65;2.60;;;5.60;99.90;;;;;;5014678;28;20964;-77
2023/02/07 10:54:24;;;;;;;3.78;2.42;;;5.60;99.90;;;;;;5024167;28;20735;-74
2023/02/07 10:56:54;;;;;;;4.05;3.25;;;5.60;99.90;;;;;;5024291;28;20351;-74
2023/02/07 10:59:44;;;;;;;3.40;2.58;;;5.60;99.90;;;;;;5018334;28;20238;-74
2023/02/07 11:02:49;;;;;;;3.40;2.45;;;5.60;99.90;;;;;;5019669;28;20567;-73
2023/02/07 11:05:31;;;;;;;2.72;2.47;;;5.50;99.90;;;;;;5023686;28;20720;-72
2023/02/07 11:08:02;;;;;;;3.22;2.90;;;5.60;99.90;;;;;;5020404;28;20884;-73
2023/02/07 11:10:35;;;;;;;5.18;2.70;;;5.50;99.90;;;;;;5016003;28;20194;-75
2023/02/07 11:13:05;;;;;;;2.05;1.85;;;5.50;99.90;;;;;;5023041;28;20616;-73
2023/02/07 11:15:39;;;;;;;3.28;2.60;;;5.50;99.90;;;;;;5024303;28;20587;-76
2023/02/07 11:18:20;;;;;;;3.30;3.00;;;5.50;99.90;;;;;;5019942;28;20229;-74
2023/02/07 11:20:51;;;;;;;3.10;2.45;;;5.50;99.90;;;;;;5017890;28;20211;-75
2023/02/07 11:23:22;;;;;;;2.33;2.13;;;5.50;99.90;;;;;;5021121;28;20622;-75
2023/02/07 11:25:56;;;;;;;3.38;2.83;;;5.50;99.90;;;;;;5017101;28;20209;-75
2023/02/07 11:28:27;;;;;;;2.45;2.25;;;5.50;99.90;;;;;;5024996;28;20256;-67
2023/02/07 11:31:01;;;;;;;3.60;2.22;;;5.50;99.90;;;;;;5017524;28;20198;-66
2023/02/07 11:33:33;;;;;;;3.00;2.40;;;5.50;99.90;;;;;;5023825;28;20245;-68
2023/02/07 11:36:06;;;;;;;4.25;2.78;;;5.50;99.90;;;;;;5025648;28;20213;-68
2023/02/07 11:38:39;;;;;;;2.85;2.60;;;5.50;99.90;;;;;;5017187;28;20214;-68
2023/02/07 11:41:20;;;;;;;3.83;2.67;;;5.50;99.90;;;;;;5020113;28;20229;-67
2023/02/07 11:43:54;;;;;;;2.78;2.58;;;5.50;99.90;;;;;;5021799;28;20578;-67
2023/02/07 11:46:30;;;;;;;3.22;2.88;;;5.50;99.90;;;;;;5013514;28;20229;-67
2023/02/07 11:48:59;;;;;;;3.17;2.85;;;5.50;99.90;;;;;;5021773;28;20232;-70
2023/02/07 11:51:31;;;;;;;3.83;3.40;;;5.50;99.90;;;;;;5020599;28;20225;-68
2023/02/07 11:54:02;;;;;;;3.80;2.83;;;5.50;99.90;;;;;;5019587;28;20194;-75
2023/02/07 11:56:36;;;;;;;3.53;3.22;;;5.50;99.90;;;;;;5020346;28;20196;-73
2023/02/07 11:59:07;;;;;;;2.47;2.28;;;5.50;99.90;;;;;;5018174;28;20200;-73
2023/02/07 12:01:38;;;;;;;3.15;2.65;;;5.50;99.90;;;;;;5017534;28;20260;-74
2023/02/07 12:04:10;;;;;;;2.60;2.30;;;5.50;99.90;;;;;;5022065;28;20222;-74
2023/02/07 12:06:44;;;;;;;2.85;2.65;;;5.50;99.90;;;;;;5018074;28;20215;-74
2023/02/07 12:09:26;;;;;;;3.88;2.63;;;5.50;99.90;;;;;;5018374;28;20217;-73
2023/02/07 12:11:57;;;;;;;3.17;2.47;;;5.50;99.90;;;;;;5011737;28;20237;-73
2023/02/07 12:14:32;;;;;;;3.25;2.38;;;5.50;99.90;;;;;;5024151;28;20305;-73
2023/02/07 12:17:04;;;;;;;3.78;2.50;;;5.50;99.90;;;;;;5020622;28;20230;-74
2023/02/07 12:19:36;;;;;;;2.70;2.50;;;5.50;99.90;;;;;;5025387;28;20195;-75
2023/02/07 12:22:15;;;;;;;2.40;2.20;;;5.50;99.90;;;;;;5021132;28;20523;-75
2023/02/07 12:24:49;;;;;;;3.05;2.33;;;5.50;99.90;;;;;;5011501;28;20221;-74
2023/02/07 12:27:19;;;;;;;2.30;2.10;;;5.50;99.90;;;;;;5022107;28;20225;-75
2023/02/07 12:30:00;;;;;;;2.30;2.10;;;5.50;99.90;;;;;;5023555;28;20328;-75
2023/02/07 12:32:40;;;;;;;3.05;2.65;;;5.50;99.90;;;;;;5016305;28;20937;-74
2023/02/07 12:35:17;;;;;;;3.25;2.90;;;5.50;99.90;;;;;;5013360;28;20215;-76
2023/02/07 12:37:52;;;;;;;3.63;2.25;;;5.50;99.90;;;;;;5021276;28;20736;-75
2023/02/07 12:40:31;;;;;;;2.83;2.40;;;5.50;99.90;;;;;;5018286;28;20226;-72
2023/02/07 12:43:03;;;;;;;2.28;2.08;;;5.50;99.90;;;;;;5008500;28;20218;-74
2023/02/07 12:45:50;;;;;;;3.08;2.20;;;5.50;99.90;;;;;;5025204;28;20214;-73
2023/02/07 12:48:28;;;;;;;2.88;2.45;;;5.50;99.90;;;;;;5019381;28;20660;-74
2023/02/07 12:51:09;;;;;;;3.60;2.58;;;5.50;99.90;;;;;;5014101;28;20207;-74
2023/02/07 12:53:55;;;;;;;2.60;2.20;;;5.50;99.90;;;;;;5022123;28;20223;-73
2023/02/07 12:56:40;;;;;;;3.13;2.42;;;5.50;99.90;;;;;;5016430;28;20227;-75
2023/02/07 12:59:19;;;;;;;3.10;2.67;;;5.50;99.90;;;;;;5012060;28;20210;-75
2023/02/07 13:01:57;;;;;;;2.40;2.20;;;5.50;99.90;;;;;;5015470;28;20709;-73
2023/02/07 13:04:55;;;;;;;2.92;2.50;;;5.50;99.90;;;;;;5020866;28;20616;-74
2023/02/07 13:07:35;;;;;;;2.63;2.42;;;5.50;99.90;;;;;;5010354;28;20281;-75
2023/02/07 13:10:19;;;;;;;3.45;2.28;;;5.50;99.90;;;;;;5013808;28;20281;-75
2023/02/07 13:12:53;;;;;;;2.20;2.00;;;5.50;99.90;;;;;;5021328;28;20310;-75
2023/02/07 13:15:30;;;;;;;2.50;2.30;;;5.50;99.90;;;;;;5015772;28;20291;-75
2023/02/07 13:18:05;;;;;;;2.67;2.08;;;5.50;99.90;;;;;;5010393;28;20221;-74
2023/02/07 13:20:46;;;;;;;2.65;1.98;;;5.50;99.90;;;;;;5020676;28;20198;-73
2023/02/07 13:23:18;;;;;;;2.72;2.38;;;5.50;99.90;;;;;;5012872;28;20238;-75
2023/02/07 13:25:52;;;;;;;2.88;2.25;;;5.50;99.90;;;;;;5022860;28;20214;-74
2023/02/07 13:28:26;;;;;;;3.55;2.35;;;5.50;99.90;;;;;;5019407;28;20273;-74